NWS Home NWS Lubbock West Texas Mesonet Latest Conditions as of 0101 AM, Mon Mar 01, 2021

Latest   N   C   S   Daily Sum   3hrΔ   24hrΔ   Soil Data 
Site Map   24hr Precip   72hr Precip   Google Plot


Station Time of Last Temp Dew Pt. RH Wind Direction Wind Speed Wind Gust Max Wind Max Temp Min Temp Max RH Min RH Altimeter 1HR Rain Today's Rain Solar Rad Wind ChillRed FlagRFTI
Abernathy 5ENE  12:55 AM 40 13 33% NE1621 23 mph 44° @ 1246 AM 40 39 34 32 30.17" 0 0 0     0
Adrian 6WSW  12:55 AM 28 9 45% E56 9 mph 94° @ 1212 AM 28 27 45 43 30.21" 0 0 0 22   0
Aiken 3WSW  12:50 AM 38 14 37% NE1315 20 mph 39° @ 1215 AM 39 38 37 35 30.19" 0 0 0     0
Amarillo 15NNW   12:55 AM 28 12 49% NW55 6 mph 308° @ 1252 AM 32 28 49 42 30.22" 0 0 0 22   0
Amarillo 7SSE  12:55 AM 27 12 53% NE810 10 mph 39° @ 1237 AM 27 25 56 50 30.20" 0 0 0 18   0
Amarillo 9NNE  12:55 AM 26 15 62% N33 5 mph 349° @ 1251 AM 27 24 69 60 30.22" 0 0 0     0
Amherst 1NE  12:55 AM 38 14 36% NE1721 25 mph 41° @ 1250 AM 39 38 36 34 30.16" 0 0 0     0
Andrews 2E  12:55 AM 46 14 27% NE2027 28 mph 54° @ 1249 AM 46 46 27 26 30.06" 0 0 0     0
Anton 6SSW  12:55 AM 40 14 34% NE2328 31 mph 34° @ 1220 AM 41 40 34 32 30.15" 0 0 0     1
Aspermont 3NE  12:55 AM 48 26 42% N1824 32 mph 14° @ 1230 AM 49 48 42 39 30.15" 0 0 0     0
Big Bend NP - Castolon  12:55 AM 70 33 25% NW57 23 mph 243° @ 1213 AM 78 70 25 13 29.87" 0 0 0     0
Big Bend NP - Persimmon Gap  12:55 AM 58 38 47% NE2528 33 mph 34° @ 1237 AM 62 58 52 47 29.95" 0 0 0     0
Big Lake 1WNW  12:55 AM 48 21 34% NE1417 30 mph 56° @ 1231 AM 49 48 37 33 30.09" 0 0 0     0
Bootleg 11WNW  12:55 AM 24 8 50% NE89 10 mph 42° @ 1247 AM 26 24 50 46 30.21" 0 0 0 15   0
Borger 7E  12:55 AM 32 13 46% E34 8 mph 70° @ 1241 AM 32 31 46 45 30.23" 0 0 0     0
Boys Ranch 1WSW  12:55 AM 24 9 52% N12 8 mph 334° @ 1202 AM 27 23 55 48 30.25" 0 0 0     0
Brownfield 2S  12:55 AM 42 14 31% NE2633 39 mph 57° @ 1217 AM 43 42 31 28 30.10" 0 0 0     2
Canadian 6E  12:55 AM 32 18 56% N911 15 mph 27° @ 1204 AM 34 31 56 50 30.21" 0 0 0 24   0
Caprock Canyons State Park  12:55 AM 41 15 35% NE79 14 mph 50° @ 1206 AM 41 41 37 33 30.21" 0 0 0     0
Childress 2NNE  12:55 AM 41 20 43% N1316 16 mph 16° @ 1255 AM 41 40 44 43 30.21" 0 0 0     0
Clarendon 2WSW  12:55 AM 37 18 46% NE911 16 mph 37° @ 1230 AM 38 37 46 42 30.20" 0 0 0     0
Claude 12SW  12:55 AM 30 15 52% N1113 16 mph 13° @ 1223 AM 34 30 52 45 30.19" 0 0 0 21   0
Clyde 2WNW  12:55 AM 46 28 49% NE2227 29 mph 36° @ 1242 AM 46 46 50 45 30.09" 0 0 0     0
Colorado City 5NW  12:55 AM 48 21 34% NE1925 33 mph 45° @ 1254 AM 49 48 34 30 30.12" 0 0 0     0
Comanche Springs  12:55 AM 45 22 41% N1421 24 mph 15° @ 1250 AM 45 45 41 40 30.19" 0 0 0     0
Coyanosa 2N  12:55 AM 50 18 28% E1923 29 mph 75° @ 1214 AM 51 49 29 26 30.05" 0 0 0     0
Crane 1NNW   12:55 AM 49 18 28% E2428 32 mph 75° @ 1221 AM 51 49 28 27 30.04" 0 0 0     3
Crowell 1E  12:55 AM 44 25 47% N1823 23 mph 8° @ 1255 AM 45 44 48 47 30.20" 0 0 0     0
Dell City  12:55 AM 46 15 28% NW1619 22 mph 259° @ 1217 AM 50 45 31 23 30.05" 0 0 0     0
Denver City 7WNW  12:55 AM 42 13 30% NE2128 33 mph 55° @ 1225 AM 44 42 30 27 30.11" 0 0 0     0
Dimmitt 2NE  12:55 AM 30 12 47% N1113 16 mph 25° @ 1220 AM 31 30 47 45 30.18" 0 0 0 21   0
Doole 3WNW  12:55 AM 51 27 39% NE1720 23 mph 31° @ 1234 AM 51 51 40 39 30.05" 0 0 0     0
Dora NM 2SW  12:55 AM 33 11 38% NE1721 26 mph 38° @ 1230 AM 33 32 39 38 30.15" 0 0 0 22   0
Dozier 3W  12:55 AM 39 19 44% N812 15 mph 14° @ 1211 AM 40 39 44 41 30.21" 0 0 0     0
Earth 9WSW  12:55 AM 34 13 41% NE1215 20 mph 31° @ 1215 AM 35 34 41 40 30.17" 0 0 0 25   0
Endee NM 2SW  12:55 AM 24 7 49% N22 8 mph 24° @ 1214 AM 28 23 50 43 30.21" 0 0 0     0
Estelline 3SSE  12:55 AM 42 19 40% NE1012 13 mph 24° @ 1201 AM 42 41 41 38 30.21" 0 0 0     0
Floydada 2NNE  12:55 AM 37 13 37% NE1417 23 mph 37° @ 1215 AM 39 37 37 33 30.16" 0 0 0     0
Fluvanna 3WNW  12:55 AM 44 18 35% NE2736 45 mph 30° @ 1235 AM 46 44 35 33 30.06" 0 0 0     2
Fort Chadbourne  12:55 AM 48 24 38% NE1722 36 mph 54° @ 1215 AM 50 48 38 32 30.06" 0 0 0     0
Fort Lancaster  12:55 AM 52 29 41% N1114 19 mph 358° @ 1246 AM 53 52 41 38 30.04" 0 0 0     0
Fort Lewis CO  12:55 AM 11 -3 51% NE78 11 mph 42° @ 1236 AM 13 8 59 51 30.23" 0 0 0 0   0
Fort McKavett  12:55 AM 50 29 44% NE1216 26 mph 33° @ 1233 AM 51 50 45 43 30.04" 0 0 0     0
Friona 2NE  12:55 AM 29 11 45% NE1114 14 mph 31° @ 1255 AM 30 28 46 44 30.19" 0 0 0 20   0
Fritch 1WNW  12:55 AM 32 12 43% NE33 5 mph 83° @ 1219 AM 33 31 44 42 30.23" 0 0 0     0
Gail 2ESE  12:55 AM 46 18 32% NE2133 36 mph 33° @ 1238 AM 48 46 33 28 30.08" 0 0 0     1
Goodlett 3W  12:55 AM 42 21 43% N1215 19 mph 16° @ 1210 AM 42 42 43 42 30.22" 0 0 0     0
Goodnight  12:55 AM 35 16 46% N1013 15 mph 18° @ 1216 AM 37 34 46 42 30.22" 0 0 0 27   0
Graham 5SSW  12:55 AM 44 18 35% NE3139 48 mph 43° @ 1249 AM 45 44 35 31 30.06" 0 0 0     2
Guadalupe Mtns Natl Park  12:55 AM 37 11 34% NE1215 22 mph 49° @ 1247 AM 39 36 35 32 30.10" 0 0 0     0
Guthrie 10WSW  12:55 AM 45 19 35% N1115 33 mph 21° @ 1226 AM 46 45 35 34 30.22" 0 0 0     0
Hackberry 2SSE  12:55 AM 45 21 39% NE1819 25 mph 26° @ 1254 AM 46 45 40 37 30.17" 0 0 0     0
Happy 1E  12:55 AM 32 15 48% NE810 11 mph 20° @ 1238 AM 34 32 49 44 30.21" 0 0 0 25   0
Hart 3N  12:55 AM 33 13 44% NE1214 15 mph 21° @ 1240 AM 34 33 44 42 30.17" 0 0 0 24   0
Haskell 1NW  12:55 AM 47 28 48% NE2230 34 mph 22° @ 1230 AM 48 47 48 44 30.11" 0 0 0     0
Hefner 1SW  12:55 AM 47 28 48% N2226 29 mph 7° @ 1252 AM 48 47 48 45 30.14" 0 0 0     0
Hereford 2NW  12:55 AM 25 11 53% N56 8 mph 27° @ 1215 AM 28 25 54 49 30.19" 0 0 0 19   0
Hobbs NM 5NW  12:55 AM 43 9 24% NE1014 27 mph 58° @ 1246 AM 45 43 24 22 30.12" 0 0 0     0
Jayton 1SSE  12:55 AM 46 22 39% N1728 28 mph 20° @ 1255 AM 47 46 39 36 30.13" 0 0 0     0
Junction 1SSW  12:55 AM 53 32 44% NE910 21 mph 39° @ 1226 AM 54 53 44 42 30.02" 0 0 0     0
Kent 9E  12:55 AM 43 20 39% E1416 18 mph 89° @ 1222 AM 45 43 39 38 30.07" 0 0 0     0
Knox City 3NW  12:55 AM 47 25 42% N2128 32 mph 19° @ 1254 AM 49 47 42 40 30.14" 0 0 0     0
Lake Alan Henry 1NW  12:55 AM 45 21 38% NE1823 36 mph 34° @ 1244 AM 48 45 38 31 30.09" 0 0 0     0
Lake McClellan 2NW  12:55 AM 33 17 53% NE89 13 mph 12° @ 1242 AM 35 33 53 48 30.20" 0 0 0 26   0
Lamesa 2SE  12:55 AM 44 18 34% NE1929 35 mph 44° @ 1245 AM 47 44 34 25 30.07" 0 0 0     0
Lesley 2S  12:55 AM 43 17 35% NE1517 22 mph 41° @ 1233 AM 44 43 35 33 30.20" 0 0 0     0
Levelland 4S  12:55 AM 40 13 32% NE2430 33 mph 44° @ 1227 AM 42 40 32 29 30.13" 0 0 0     1
Lomax 1SSE  12:55 AM 48 19 31% NE1113 26 mph 47° @ 1238 AM 48 47 33 28 30.09" 0 0 0     0
Lubbock 3WNW TTU  12:55 AM 41 14 33% NE1421 26 mph 42° @ 1205 AM 42 41 33 30 30.16" 0 0 0     0
McAdoo 3NNW  12:55 AM 40 16 38% NE2631 36 mph 35° @ 1213 AM 41 40 38 36 30.16" 0 0 0     0
McCamey 1SSW  12:55 AM 47 27 46% NE1619 22 mph 46° @ 1232 AM 48 47 52 46 30.06" 0 0 0     0
McLean 1E  12:55 AM 35 18 50% N1114 18 mph 26° @ 1205 AM 36 35 50 46 30.18" 0 0 0 27   0
Memphis 1NE  12:55 AM 42 18 37% N1013 22 mph 6° @ 1222 AM 43 42 37 35 30.21" 0 0 0     0
Menard 2NW   12:55 AM 51 29 43% NE810 25 mph 42° @ 1235 AM 52 51 43 42 30.05" 0 0 0     0
Mertzon 3NNE  12:55 AM 49 22 35% NE1419 26 mph 55° @ 1210 AM 49 48 39 35 30.07" 0 0 0     0
Morton 1ENE  12:55 AM 40 10 29% NE1823 28 mph 36° @ 1220 AM 41 40 29 27 30.16" 0 0 0     0
Muleshoe 2SSW  12:55 AM 36 13 38% NE1418 20 mph 27° @ 1245 AM 36 35 39 38 30.17" 0 0 0     0
New Home  12:55 AM 41 14 32% NE2024 29 mph 53° @ 1243 AM 43 41 32 30 30.13" 0 0 0     1
Northfield 1S  12:55 AM 40 17 39% NE811 16 mph 26° @ 1215 AM 42 40 39 35 30.20" 0 0 0     0
O'Donnell 1N  12:55 AM 44 17 33% NE3039 39 mph 42° @ 1255 AM 45 44 34 33 30.08" 0 0 0     2
Odell 4ENE  12:55 AM 42 27 54% N1316 21 mph 9° @ 1201 AM 43 42 55 52 30.22" 0 0 0     0
Olton 6S  12:55 AM 39 15 37% NE1721 26 mph 30° @ 1220 AM 39 39 37 35 30.16" 0 0 0     0
Paducah 10SW  12:30 AM 44 19 35% NE1520 22 mph 24° @ 1205 AM 45 44 35 34 30.19" 0 0 0     0
Palo Duro 4E (JA Ranch)  12:55 AM 39 17 42% N910 15 mph 19° @ 1238 AM 41 39 42 37 30.22" 0 0 0     0
Palo Duro Canyon SP Floor  12:55 AM 37 15 39% NW13 12 mph 324° @ 1248 AM 39 36 41 36 30.22" 0 0 0     0
Palo Duro Canyon State Park Rim  12:55 AM 35 13 40% N811 14 mph 28° @ 1234 AM 35 34 40 38 30.21" 0 0 0 28   0
Palo Duro Reservoir 1NW   12:55 AM 21 9 58% N33 4 mph 62° @ 1201 AM 29 21 58 51 30.23" 0 0 0     0
Pampa 2E  12:55 AM 29 17 59% N45 8 mph 37° @ 1205 AM 31 29 59 55 30.20" 0 0 0     0
Panhandle 1SSW  12:55 AM 31 15 52% N1011 11 mph 29° @ 1242 AM 31 29 54 50 30.21" 0 0 0 23   0
Plains 3N  12:55 AM 41 13 31% NE1928 32 mph 46° @ 1225 AM 43 41 31 28 30.12" 0 0 0     0
Plainview 1S  12:55 AM 40 14 35% NE1316 23 mph 43° @ 1229 AM 41 40 35 32 30.18" 0 0 0     0
Post 1NE  12:55 AM 45 16 31% NE2330 31 mph 34° @ 1245 AM 46 45 31 30 30.12" 0 0 0     2
Ralls 1SE  12:55 AM 40 14 34% NE1923 30 mph 51° @ 1252 AM 41 40 34 32 30.15" 0 0 0     0
Reese Center  12:55 AM 41 13 31% NE1922 26 mph 50° @ 1251 AM 41 41 32 31 30.15" 0 0 0     0
Roaring Springs 3N  12:55 AM 41 16 37% NE1418 25 mph 27° @ 1226 AM 42 41 37 33 30.20" 0 0 0     0
Romero 11SSW  12:55 AM 27 11 51% NE78 11 mph 18° @ 1229 AM 27 26 52 50 30.22" 0 0 0 20   0
Rotan 5W  12:55 AM 48 23 38% NE2124 31 mph 18° @ 1245 AM 48 48 38 35 30.13" 0 0 0     0
San Angelo 7NW  12:55 AM 49 22 34% NE1521 24 mph 52° @ 1230 AM 49 49 34 32 30.04" 0 0 0     0
Seagraves 1SW  12:55 AM 43 14 30% NE1627 32 mph 55° @ 1210 AM 44 43 30 27 30.09" 0 0 0     0
Segovia 7SSW  12:55 AM 51 32 48% NE1215 20 mph 22° @ 1241 AM 52 51 50 47 30.02" 0 0 0     0
Seminole 2NNE  12:55 AM 44 14 29% NE2434 34 mph 45° @ 1255 AM 46 44 29 26 30.08" 0 0 0     1
Seymour 3NW  12:55 AM 47 30 52% N1721 22 mph 13° @ 1235 AM 48 47 54 50 30.17" 0 0 0     0
Sierra Blanca 1SSE  12:55 AM 42 -4 14% N1518 34 mph 328° @ 1250 AM 45 42 14 12 30.06" 0 0 0   17 1
Silverton 7ESE  12:55 AM 38 16 40% NE1316 22 mph 23° @ 1210 AM 39 38 40 38 30.19" 0 0 0     0
Slaton 2NE  12:55 AM 41 14 33% NE1621 31 mph 42° @ 1213 AM 43 41 33 30 30.15" 0 0 0     0
Smyer  12:55 AM 40 13 32% NE1823 27 mph 43° @ 1233 AM 41 40 32 31 30.14" 0 0 0     0
Snyder 3E  12:55 AM 47 22 37% NE2639 39 mph 29° @ 1255 AM 47 47 37 33 30.07" 0 0 0     0
Snyder 3SSW  12:55 AM 47 21 35% NE1722 33 mph 24° @ 1243 AM 47 47 35 31 30.09" 0 0 0     0
South Plains 3ENE  12:55 AM 39 15 37% NE1517 23 mph 35° @ 1225 AM 41 39 37 34 30.19" 0 0 0     0
Spur 1W  12:55 AM 45 18 33% NE1723 30 mph 35° @ 1210 AM 46 45 33 32 30.16" 0 0 0     0
St. Lawrence 5SW  12:55 AM 37 29 72% NE1216 30 mph 68° @ 1232 AM 43 37 72 48 30.10" 0.12 0.13 0     0
Stamford 5ESE  12:55 AM 48 29 48% NE1822 25 mph 35° @ 1252 AM 48 47 48 45 30.12" 0 0 0     0
Sterling City 4WSW  12:55 AM 48 19 31% N1924 27 mph 251° @ 1240 AM 51 48 31 25 30.10" 0 0 0     0
Stinnett 1NNW  12:55 AM 29 13 50% NE45 8 mph 35° @ 1201 AM 30 29 51 48 30.23" 0 0 0     0
Stratford 4WNW  12:55 AM 18 10 68% NW22 4 mph 351° @ 1201 AM 19 17 69 57 30.23" 0 0 0     0
Sundown 8WSW  12:55 AM 41 12 29% NE2331 31 mph 41° @ 1205 AM 42 41 29 27 30.13" 0 0 0     1
Sweetwater 11SW   12:55 AM 45 21 38% NE2228 33 mph 44° @ 1220 AM 46 45 38 37 30.07" 0 0 0     0
Tahoka 3NNE  12:55 AM 42 15 33% NE2327 33 mph 40° @ 1252 AM 44 42 33 30 30.11" 0 0 0     1
Tarzan 2WNW  12:55 AM 45 19 35% NE1822 33 mph 46° @ 1212 AM 46 45 38 35 30.06" 0 0 0     0
Tatum NM 2SW  12:55 AM 40 11 29% NE2129 32 mph 37° @ 1205 AM 41 40 29 28 30.15" 0 0 0     0
Throckmorton 1SW  12:55 AM 48 29 48% NE1215 28 mph 34° @ 1247 AM 48 48 48 46 30.12" 0 0 0     0
Truscott 2SE  12:55 AM 46 25 43% N1720 26 mph 5° @ 1232 AM 47 46 43 42 30.17" 0 0 0     0
Tulia 2ENE  12:55 AM 36 15 40% N1115 16 mph 21° @ 1250 AM 38 36 40 37 30.18" 0 0 0     0
Turkey 2WSW  12:55 AM 41 17 37% N1114 18 mph 360° @ 1210 AM 42 41 37 35 30.19" 0 0 0     0
Umbarger 3NNE  12:55 AM 25 9 50% NE55 12 mph 23° @ 1236 AM 27 25 50 46 30.20" 0 0 0     0
Van Horn 3ENE  12:55 AM 46 18 32% N911 18 mph 8° @ 1220 AM 48 46 32 28 30.07" 0 0 0     0
Vega 4E  12:55 AM 24 10 56% NE78 11 mph 58° @ 1220 AM 24 22 61 56 30.20" 0 0 0 16   0
Vigo Park  12:55 AM 37 16 42% N910 15 mph 32° @ 1204 AM 38 37 43 40 30.20" 0 0 0     0
Wall 2E  12:55 AM 49 26 40% NE1720 21 mph 56° @ 1241 AM 49 47 47 40 30.05" 0 0 0     0
Weinert 2NNE  12:55 AM 47 27 46% N2025 32 mph 32° @ 1204 AM 48 47 46 41 30.13" 0 0 0     0
Welch  12:55 AM 44 16 32% NE1925 36 mph 53° @ 1244 AM 45 44 32 30 30.09" 0 0 0     0
Wellington 6SE  12:55 AM 41 19 41% NE1012 20 mph 21° @ 1236 AM 41 41 41 40 30.23" 0 0 0     0
White River Lake 6NW  12:55 AM 43 15 32% NE1825 33 mph 30° @ 1222 AM 44 43 32 31 30.15" 0 0 0     0
Wolfforth 6SSW  12:55 AM 41 13 31% NE2328 39 mph 60° @ 1239 AM 43 41 31 29 30.13" 0 0 0     2

West Texas Mesonet Home   Site Map/Menu  NWS Lubbock Soil Data  Daily Summary Page  24hr Precip  72hr Precip  Google Plot